Time,TemperatureF,DewpointF,PressureIn,WindDirection,WindDirectionDegrees,WindSpeedMPH,WindSpeedGustMPH,Humidity,HourlyPrecipIn,Conditions,Clouds,dailyrainin,SoftwareType,DateUTC
2013-04-13 00:03:00,25.0,23.0,-100.00,NNW,330,2.0,6.0,92,-99.99,,,-99.99,,2013-04-13 04:03:00,
2013-04-13 00:12:00,25.0,23.0,-100.00,NNW,330,2.0,6.0,92,-99.99,,,-99.99,,2013-04-13 04:12:00,
2013-04-13 00:42:00,25.0,23.0,-100.00,NW,325,3.0,8.0,93,-99.99,,,-99.99,,2013-04-13 04:42:00,
2013-04-13 00:53:00,25.0,23.0,-100.00,NW,325,3.0,8.0,93,-99.99,,,-99.99,,2013-04-13 04:53:00,
2013-04-13 01:02:00,25.0,23.0,-100.00,NW,325,3.0,8.0,93,-99.99,,,-99.99,,2013-04-13 05:02:00,
2013-04-13 01:12:00,25.0,23.0,-100.00,NW,325,3.0,8.0,93,-99.99,,,-99.99,,2013-04-13 05:12:00,
2013-04-13 01:43:00,24.0,23.0,-100.00,NW,315,2.0,4.0,93,-99.99,,,-99.99,,2013-04-13 05:43:00,
2013-04-13 01:53:00,24.0,23.0,-100.00,NW,315,2.0,4.0,93,-99.99,,,-99.99,,2013-04-13 05:53:00,
2013-04-13 02:02:00,24.0,23.0,-100.00,NW,315,2.0,4.0,93,-99.99,,,-99.99,,2013-04-13 06:02:00,
2013-04-13 02:12:00,24.0,23.0,-100.00,NW,315,2.0,4.0,93,-99.99,,,-99.99,,2013-04-13 06:12:00,
2013-04-13 02:20:00,24.0,22.0,-100.00,NW,320,3.0,7.0,93,-99.99,,,-99.99,,2013-04-13 06:20:00,
2013-04-13 02:49:00,24.0,22.0,-100.00,NW,320,3.0,7.0,93,-99.99,,,-99.99,,2013-04-13 06:49:00,
2013-04-13 02:55:00,24.0,22.0,-100.00,NW,320,3.0,7.0,93,-99.99,,,-99.99,,2013-04-13 06:55:00,
2013-04-13 03:05:00,24.0,22.0,-100.00,NW,320,3.0,7.0,93,-99.99,,,-99.99,,2013-04-13 07:05:00,
2013-04-13 03:45:00,24.0,22.0,-100.00,NW,320,4.0,7.0,94,-99.99,,,-99.99,,2013-04-13 07:45:00,
2013-04-13 03:56:00,24.0,22.0,-100.00,NW,320,4.0,7.0,94,-99.99,,,-99.99,,2013-04-13 07:56:00,
2013-04-13 04:06:00,24.0,22.0,-100.00,NW,320,4.0,7.0,94,-99.99,,,-99.99,,2013-04-13 08:06:00,
2013-04-13 04:15:00,24.0,22.0,-100.00,NW,320,4.0,7.0,94,-99.99,,,-99.99,,2013-04-13 08:15:00,
2013-04-13 04:47:00,23.0,22.0,-100.00,NW,315,2.0,6.0,95,-99.99,,,-99.99,,2013-04-13 08:47:00,
2013-04-13 04:54:00,23.0,22.0,-100.00,NW,315,2.0,6.0,95,-99.99,,,-99.99,,2013-04-13 08:54:00,
2013-04-13 05:05:00,23.0,22.0,-100.00,NW,315,2.0,6.0,95,-99.99,,,-99.99,,2013-04-13 09:05:00,
2013-04-13 05:14:00,23.0,22.0,-100.00,NW,315,2.0,6.0,95,-99.99,,,-99.99,,2013-04-13 09:14:00,
2013-04-13 05:53:00,24.0,22.0,-100.00,WNW,300,2.0,6.0,95,-99.99,,,-99.99,,2013-04-13 09:53:00,
2013-04-13 06:15:00,24.0,22.0,-100.00,WNW,300,2.0,6.0,95,-99.99,,,-99.99,,2013-04-13 10:15:00,
2013-04-13 06:50:00,23.0,22.0,-100.00,NW,305,1.0,4.0,95,-99.99,,,-99.99,,2013-04-13 10:50:00,
2013-04-13 07:06:00,23.0,22.0,-100.00,NW,305,1.0,4.0,95,-99.99,,,-99.99,,2013-04-13 11:06:00,
2013-04-13 07:13:00,23.0,22.0,-100.00,NW,305,1.0,4.0,95,-99.99,,,-99.99,,2013-04-13 11:13:00,
2013-04-13 07:46:00,22.0,21.0,-100.00,SSW,200,1.0,1.0,96,-99.99,,,-99.99,,2013-04-13 11:46:00,
2013-04-13 07:54:00,22.0,21.0,-100.00,SSW,200,1.0,1.0,96,-99.99,,,-99.99,,2013-04-13 11:54:00,
2013-04-13 08:08:00,22.0,21.0,-100.00,SSW,200,1.0,1.0,96,-99.99,,,-99.99,,2013-04-13 12:08:00,
2013-04-13 08:14:00,22.0,21.0,-100.00,SSW,200,1.0,1.0,96,-99.99,,,-99.99,,2013-04-13 12:14:00,
2013-04-13 08:49:00,23.0,22.0,-100.00,South,180,1.0,1.0,96,-99.99,,,-99.99,,2013-04-13 12:49:00,
2013-04-13 08:55:00,23.0,22.0,-100.00,South,180,1.0,1.0,96,-99.99,,,-99.99,,2013-04-13 12:55:00,
2013-04-13 09:05:00,23.0,22.0,-100.00,South,180,1.0,1.0,96,-99.99,,,-99.99,,2013-04-13 13:05:00,
2013-04-13 09:15:00,23.0,22.0,-100.00,South,180,1.0,1.0,96,-99.99,,,-99.99,,2013-04-13 13:15:00,
2013-04-13 09:20:00,25.0,24.0,-100.00,NW,315,3.0,6.0,96,-99.99,,,-99.99,,2013-04-13 13:20:00,
2013-04-13 09:49:00,25.0,24.0,-100.00,NW,315,3.0,6.0,96,-99.99,,,-99.99,,2013-04-13 13:49:00,
2013-04-13 10:04:00,25.0,24.0,-100.00,NW,315,3.0,6.0,96,-99.99,,,-99.99,,2013-04-13 14:04:00,
2013-04-13 10:14:00,25.0,24.0,-100.00,NW,315,3.0,6.0,96,-99.99,,,-99.99,,2013-04-13 14:14:00,
2013-04-13 10:48:00,29.0,22.0,-100.00,WNW,300,4.0,9.0,74,-99.99,,,-99.99,,2013-04-13 14:48:00,
2013-04-13 10:59:00,29.0,22.0,-100.00,WNW,300,4.0,9.0,74,-99.99,,,-99.99,,2013-04-13 14:59:00,
2013-04-13 11:05:00,29.0,22.0,-100.00,WNW,300,4.0,9.0,74,-99.99,,,-99.99,,2013-04-13 15:05:00,
2013-04-13 11:14:00,29.0,22.0,-100.00,WNW,300,4.0,9.0,74,-99.99,,,-99.99,,2013-04-13 15:14:00,
2013-04-13 11:45:00,29.0,19.0,-100.00,West,280,3.0,10.0,65,-99.99,,,-99.99,,2013-04-13 15:45:00,
2013-04-13 11:58:00,29.0,19.0,-100.00,West,280,3.0,10.0,65,-99.99,,,-99.99,,2013-04-13 15:58:00,
2013-04-13 12:06:00,29.0,19.0,-100.00,West,280,3.0,10.0,65,-99.99,,,-99.99,,2013-04-13 16:06:00,
2013-04-13 12:15:00,29.0,19.0,-100.00,West,280,3.0,10.0,65,-99.99,,,-99.99,,2013-04-13 16:15:00,
2013-04-13 12:18:00,32.0,18.0,-100.00,West,265,6.0,11.0,56,-99.99,,,-99.99,,2013-04-13 16:18:00,
2013-04-13 12:48:00,32.0,18.0,-100.00,West,265,6.0,11.0,56,-99.99,,,-99.99,,2013-04-13 16:48:00,
2013-04-13 12:56:00,32.0,18.0,-100.00,West,265,6.0,11.0,56,-99.99,,,-99.99,,2013-04-13 16:56:00,
2013-04-13 13:45:00,33.0,16.0,-100.00,West,270,5.0,9.0,49,-99.99,,,-99.99,,2013-04-13 17:45:00,
2013-04-13 14:04:00,33.0,16.0,-100.00,West,270,5.0,9.0,49,-99.99,,,-99.99,,2013-04-13 18:04:00,
2013-04-13 14:15:00,33.0,16.0,-100.00,West,270,5.0,9.0,49,-99.99,,,-99.99,,2013-04-13 18:15:00,
2013-04-13 14:42:00,35.0,16.0,-100.00,West,270,6.0,9.0,46,-99.99,,,-99.99,,2013-04-13 18:42:00,
2013-04-13 14:53:00,35.0,16.0,-100.00,West,270,6.0,9.0,46,-99.99,,,-99.99,,2013-04-13 18:53:00,
2013-04-13 15:03:00,35.0,16.0,-100.00,West,270,6.0,9.0,46,-99.99,,,-99.99,,2013-04-13 19:03:00,
2013-04-13 15:12:00,35.0,16.0,-100.00,West,270,6.0,9.0,46,-99.99,,,-99.99,,2013-04-13 19:12:00,
2013-04-13 15:20:00,34.0,20.0,-100.00,NW,320,7.0,12.0,56,-99.99,,,-99.99,,2013-04-13 19:20:00,
2013-04-13 15:42:00,34.0,20.0,-100.00,NW,320,7.0,12.0,56,-99.99,,,-99.99,,2013-04-13 19:42:00,
2013-04-13 15:53:00,34.0,20.0,-100.00,NW,320,7.0,12.0,56,-99.99,,,-99.99,,2013-04-13 19:53:00,
2013-04-13 16:02:00,34.0,20.0,-100.00,NW,320,7.0,12.0,56,-99.99,,,-99.99,,2013-04-13 20:02:00,
2013-04-13 16:12:00,34.0,20.0,-100.00,NW,320,7.0,12.0,56,-99.99,,,-99.99,,2013-04-13 20:12:00,
2013-04-13 16:42:00,34.0,22.0,-100.00,WNW,290,2.0,6.0,62,-99.99,,,-99.99,,2013-04-13 20:42:00,
2013-04-13 16:52:00,34.0,22.0,-100.00,WNW,290,2.0,6.0,62,-99.99,,,-99.99,,2013-04-13 20:52:00,
2013-04-13 17:02:00,34.0,22.0,-100.00,WNW,290,2.0,6.0,62,-99.99,,,-99.99,,2013-04-13 21:02:00,
2013-04-13 17:12:00,34.0,22.0,-100.00,WNW,290,2.0,6.0,62,-99.99,,,-99.99,,2013-04-13 21:12:00,
2013-04-13 17:43:00,35.0,19.0,-100.00,WNW,295,2.0,9.0,51,-99.99,,,-99.99,,2013-04-13 21:43:00,
2013-04-13 17:53:00,35.0,19.0,-100.00,WNW,295,2.0,9.0,51,-99.99,,,-99.99,,2013-04-13 21:53:00,
2013-04-13 18:03:00,35.0,19.0,-100.00,WNW,295,2.0,9.0,51,-99.99,,,-99.99,,2013-04-13 22:03:00,
2013-04-13 18:12:00,35.0,19.0,-100.00,WNW,295,2.0,9.0,51,-99.99,,,-99.99,,2013-04-13 22:12:00,
2013-04-13 18:42:00,35.0,19.0,-100.00,WNW,285,4.0,7.0,53,-99.99,,,-99.99,,2013-04-13 22:42:00,
2013-04-13 18:53:00,35.0,19.0,-100.00,WNW,285,4.0,7.0,53,-99.99,,,-99.99,,2013-04-13 22:53:00,
2013-04-13 19:02:00,35.0,19.0,-100.00,WNW,285,4.0,7.0,53,-99.99,,,-99.99,,2013-04-13 23:02:00,
2013-04-13 19:12:00,35.0,19.0,-100.00,WNW,285,4.0,7.0,53,-99.99,,,-99.99,,2013-04-13 23:12:00,
2013-04-13 19:43:00,34.0,18.0,-100.00,NW,320,4.0,6.0,50,-99.99,,,-99.99,,2013-04-13 23:43:00,
2013-04-13 19:53:00,34.0,18.0,-100.00,NW,320,4.0,6.0,50,-99.99,,,-99.99,,2013-04-13 23:53:00,
2013-04-13 20:02:00,34.0,18.0,-100.00,NW,320,4.0,6.0,50,-99.99,,,-99.99,,2013-04-14 00:02:00,
2013-04-13 20:12:00,34.0,18.0,-100.00,NW,320,4.0,6.0,50,-99.99,,,-99.99,,2013-04-14 00:12:00,
2013-04-13 20:42:00,34.0,17.0,-100.00,North,350,2.0,7.0,48,-99.99,,,-99.99,,2013-04-14 00:42:00,
2013-04-13 20:52:00,34.0,17.0,-100.00,North,350,2.0,7.0,48,-99.99,,,-99.99,,2013-04-14 00:52:00,
2013-04-13 21:02:00,34.0,17.0,-100.00,North,350,2.0,7.0,48,-99.99,,,-99.99,,2013-04-14 01:02:00,
2013-04-13 21:12:00,34.0,17.0,-100.00,North,350,2.0,7.0,48,-99.99,,,-99.99,,2013-04-14 01:12:00,
2013-04-13 21:42:00,28.0,17.0,-100.00,SW,220,0.0,0.0,62,-99.99,,,-99.99,,2013-04-14 01:42:00,
2013-04-13 21:53:00,28.0,17.0,-100.00,SW,220,0.0,0.0,62,-99.99,,,-99.99,,2013-04-14 01:53:00,
2013-04-13 22:02:00,28.0,17.0,-100.00,SW,220,0.0,0.0,62,-99.99,,,-99.99,,2013-04-14 02:02:00,
2013-04-13 22:12:00,28.0,17.0,-100.00,SW,220,0.0,0.0,62,-99.99,,,-99.99,,2013-04-14 02:12:00,
2013-04-13 22:43:00,25.0,17.0,-100.00,SSW,200,0.0,1.0,73,-99.99,,,-99.99,,2013-04-14 02:43:00,
2013-04-13 22:53:00,25.0,17.0,-100.00,SSW,200,0.0,1.0,73,-99.99,,,-99.99,,2013-04-14 02:53:00,
2013-04-13 23:02:00,25.0,17.0,-100.00,SSW,200,0.0,1.0,73,-99.99,,,-99.99,,2013-04-14 03:02:00,
2013-04-13 23:12:00,25.0,17.0,-100.00,SSW,200,0.0,1.0,73,-99.99,,,-99.99,,2013-04-14 03:12:00,
2013-04-13 23:43:00,21.0,17.0,-100.00,South,190,0.0,0.0,83,-99.99,,,-99.99,,2013-04-14 03:43:00,
2013-04-13 23:53:00,21.0,17.0,-100.00,South,190,0.0,0.0,83,-99.99,,,-99.99,,2013-04-14 03:53:00,